createdAt,value
2023-02-26T00:00:39.326Z,16.15
2023-02-26T00:03:06.570Z,16.83
2023-02-26T00:05:33.691Z,16.38
2023-02-26T00:08:00.795Z,13.88
2023-02-26T00:10:27.934Z,14.57
2023-02-26T00:12:55.168Z,13.43
2023-02-26T00:15:22.757Z,15.55
2023-02-26T00:17:49.910Z,16.95
2023-02-26T00:20:17.363Z,13.65
2023-02-26T00:22:44.704Z,16.08
2023-02-26T00:25:12.383Z,12.77
2023-02-26T00:27:39.762Z,13.93
2023-02-26T00:30:07.736Z,13.82
2023-02-26T00:32:35.461Z,11.60
2023-02-26T00:35:02.986Z,17.40
2023-02-26T00:37:39.132Z,14.00
2023-02-26T00:40:09.273Z,14.25
2023-02-26T00:42:36.483Z,15.45
2023-02-26T00:45:04.520Z,12.15
2023-02-26T00:47:34.684Z,12.13
2023-02-26T00:50:21.941Z,12.45
2023-02-26T00:52:49.005Z,9.88
2023-02-26T00:55:16.353Z,12.90
2023-02-26T00:57:43.511Z,11.18
2023-02-26T01:00:11.060Z,11.15
2023-02-26T01:02:38.968Z,13.30
2023-02-26T01:05:06.699Z,14.10
2023-02-26T01:07:54.400Z,12.25
2023-02-26T01:10:21.885Z,13.65
2023-02-26T01:12:49.160Z,12.18
2023-02-26T01:15:16.456Z,13.18
2023-02-26T01:17:49.628Z,14.05
2023-02-26T01:20:21.297Z,13.07
2023-02-26T01:22:48.346Z,13.18
2023-02-26T01:25:18.897Z,16.10
2023-02-26T01:27:46.086Z,12.38
2023-02-26T01:30:13.564Z,11.20
2023-02-26T01:32:51.895Z,14.50
2023-02-26T01:35:21.992Z,12.82
2023-02-26T01:37:57.106Z,12.27
2023-02-26T01:40:42.740Z,12.20
2023-02-26T01:43:32.817Z,13.65
2023-02-26T01:46:18.835Z,12.90
2023-02-26T01:48:51.306Z,13.40
2023-02-26T01:51:19.335Z,14.50
2023-02-26T01:53:46.548Z,17.08
2023-02-26T01:56:17.177Z,16.15
2023-02-26T01:58:44.917Z,13.32
2023-02-26T02:01:12.053Z,12.40
2023-02-26T02:03:40.516Z,14.38
2023-02-26T02:06:09.301Z,13.82
2023-02-26T02:08:36.720Z,13.50
2023-02-26T02:11:05.139Z,13.75
2023-02-26T02:13:32.208Z,12.23
2023-02-26T02:16:05.286Z,15.52
2023-02-26T02:18:41.536Z,11.02
2023-02-26T02:21:16.892Z,11.57
2023-02-26T02:23:46.009Z,9.60
2023-02-26T02:26:13.247Z,10.00
2023-02-26T02:28:57.954Z,10.75
2023-02-26T02:31:30.519Z,11.25
2023-02-26T02:34:13.013Z,9.27
2023-02-26T02:36:55.578Z,10.70
2023-02-26T02:39:38.203Z,11.13
2023-02-26T02:42:09.192Z,10.00
2023-02-26T02:44:38.812Z,11.48
2023-02-26T02:47:07.006Z,11.27
2023-02-26T02:49:37.018Z,9.98
2023-02-26T02:52:10.947Z,11.52
2023-02-26T02:54:45.659Z,10.98
2023-02-26T02:57:21.513Z,11.23
2023-02-26T02:59:50.083Z,12.68
2023-02-26T03:02:17.194Z,12.85
2023-02-26T03:04:44.613Z,11.88
2023-02-26T03:07:11.765Z,11.63
2023-02-26T03:09:38.843Z,11.95
2023-02-26T03:12:06.114Z,10.98
2023-02-26T03:14:33.612Z,12.13
2023-02-26T03:17:01.164Z,10.30
2023-02-26T03:19:47.194Z,10.15
2023-02-26T03:22:20.302Z,10.68
2023-02-26T03:24:53.401Z,10.40
2023-02-26T03:27:23.255Z,10.63
2023-02-26T03:29:52.162Z,10.38
2023-02-26T03:32:25.408Z,11.13
2023-02-26T03:35:00.627Z,10.27
2023-02-26T03:37:31.182Z,11.00
2023-02-26T03:40:00.501Z,12.48
2023-02-26T03:42:30.578Z,11.27
2023-02-26T03:44:59.784Z,12.63
2023-02-26T03:47:27.500Z,10.63
2023-02-26T03:50:02.670Z,9.70
2023-02-26T03:52:31.189Z,10.93
2023-02-26T03:55:03.713Z,11.07
2023-02-26T03:57:30.911Z,10.30
2023-02-26T03:59:58.086Z,10.07
2023-02-26T04:02:38.087Z,11.40
2023-02-26T04:05:13.530Z,11.02
2023-02-26T04:07:40.831Z,12.07
2023-02-26T04:10:09.624Z,11.18
2023-02-26T04:12:36.759Z,12.27
2023-02-26T04:15:05.336Z,11.30
2023-02-26T04:17:32.460Z,11.43
2023-02-26T04:19:59.554Z,13.48
2023-02-26T04:22:26.852Z,13.77
2023-02-26T04:24:53.931Z,9.90
2023-02-26T04:27:21.085Z,9.55
2023-02-26T04:29:48.225Z,10.25
2023-02-26T04:32:15.489Z,12.65
2023-02-26T04:34:42.637Z,11.70
2023-02-26T04:37:09.809Z,12.70
2023-02-26T04:39:36.883Z,12.00
2023-02-26T04:42:04.439Z,12.68
2023-02-26T04:44:32.200Z,12.30
2023-02-26T04:46:59.509Z,14.30
2023-02-26T04:49:26.672Z,10.85
2023-02-26T04:51:54.051Z,13.45
2023-02-26T04:54:21.146Z,13.48
2023-02-26T04:56:48.222Z,12.68
2023-02-26T04:59:15.436Z,13.77
2023-02-26T05:01:42.549Z,11.05
2023-02-26T05:04:09.849Z,11.98
2023-02-26T05:06:37.004Z,10.85
2023-02-26T05:09:04.314Z,11.52
2023-02-26T05:11:31.412Z,11.25
2023-02-26T05:13:58.545Z,11.38
2023-02-26T05:16:26.203Z,10.27
2023-02-26T05:18:53.550Z,13.00
2023-02-26T05:21:22.480Z,12.68
2023-02-26T05:23:50.157Z,11.57
2023-02-26T05:26:17.279Z,12.30
2023-02-26T05:28:45.873Z,11.43
2023-02-26T05:31:14.141Z,12.68
2023-02-26T05:33:41.599Z,12.85
2023-02-26T05:36:08.786Z,13.15
2023-02-26T05:38:36.117Z,11.18
2023-02-26T05:41:03.336Z,13.20
2023-02-26T05:43:31.057Z,13.95
2023-02-26T05:45:58.189Z,12.30
2023-02-26T05:48:25.315Z,12.02
2023-02-26T05:50:52.732Z,12.98
2023-02-26T05:53:20.260Z,13.02
2023-02-26T05:55:47.347Z,13.10
2023-02-26T05:58:15.649Z,14.13
2023-02-26T06:00:42.856Z,13.18
2023-02-26T06:03:10.083Z,11.77
2023-02-26T06:05:37.448Z,12.93
2023-02-26T06:08:05.578Z,11.68
2023-02-26T06:10:32.877Z,12.10
2023-02-26T06:13:00.104Z,10.05
2023-02-26T06:15:27.234Z,13.25
2023-02-26T06:17:55.876Z,10.25
2023-02-26T06:20:23.082Z,9.98
2023-02-26T06:22:50.706Z,10.95
2023-02-26T06:25:17.868Z,11.02
2023-02-26T06:27:45.091Z,10.35
2023-02-26T06:30:12.478Z,12.20
2023-02-26T06:32:39.708Z,11.48
2023-02-26T06:35:07.243Z,10.30
2023-02-26T06:37:34.370Z,10.95
2023-02-26T06:40:01.467Z,9.43
2023-02-26T06:42:28.657Z,11.25
2023-02-26T06:44:57.165Z,12.27
2023-02-26T06:47:24.871Z,11.93
2023-02-26T06:49:52.009Z,11.77
2023-02-26T06:52:19.126Z,12.90
2023-02-26T06:54:46.358Z,10.95
2023-02-26T06:57:13.495Z,13.60
2023-02-26T06:59:40.631Z,9.98
2023-02-26T07:02:07.784Z,11.70
2023-02-26T07:04:34.977Z,13.95
2023-02-26T07:07:02.052Z,12.82
2023-02-26T07:09:29.247Z,12.93
2023-02-26T07:11:56.396Z,12.95
2023-02-26T07:14:23.636Z,12.75
2023-02-26T07:16:50.801Z,15.45
2023-02-26T07:19:17.941Z,12.65
2023-02-26T07:21:45.043Z,14.77
2023-02-26T07:24:12.145Z,11.63
2023-02-26T07:26:39.321Z,15.10
2023-02-26T07:29:06.417Z,14.50
2023-02-26T07:31:34.172Z,11.25
2023-02-26T07:34:01.419Z,12.60
2023-02-26T07:36:28.595Z,11.85
2023-02-26T07:38:55.786Z,13.95
2023-02-26T07:41:22.960Z,13.73
2023-02-26T07:43:50.398Z,13.35
2023-02-26T07:46:17.564Z,13.25
2023-02-26T07:48:44.776Z,12.40
2023-02-26T07:51:11.861Z,11.38
2023-02-26T07:53:38.961Z,12.25
2023-02-26T07:56:06.179Z,14.63
2023-02-26T07:58:33.264Z,15.98
2023-02-26T08:01:00.348Z,14.40
2023-02-26T08:03:27.512Z,14.18
2023-02-26T08:05:54.612Z,12.75
2023-02-26T08:08:21.715Z,11.95
2023-02-26T08:10:48.862Z,12.65
2023-02-26T08:13:15.972Z,12.27
2023-02-26T08:15:44.079Z,13.82
2023-02-26T08:18:11.867Z,15.63
2023-02-26T08:20:39.018Z,12.80
2023-02-26T08:23:06.090Z,12.55
2023-02-26T08:25:33.221Z,12.85
2023-02-26T08:28:01.169Z,12.77
2023-02-26T08:30:28.354Z,14.15
2023-02-26T08:32:55.511Z,13.40
2023-02-26T08:35:22.671Z,14.40
2023-02-26T08:37:49.943Z,15.23
2023-02-26T08:40:17.176Z,14.00
2023-02-26T08:42:44.329Z,13.98
2023-02-26T08:45:11.585Z,12.52
2023-02-26T08:47:53.895Z,15.65
2023-02-26T08:50:23.322Z,13.68
2023-02-26T08:52:50.509Z,13.48
2023-02-26T08:55:17.665Z,13.45
2023-02-26T08:57:44.798Z,12.07
2023-02-26T09:00:12.274Z,11.82
2023-02-26T09:02:39.564Z,13.10
2023-02-26T09:05:06.862Z,12.52
2023-02-26T09:07:34.028Z,12.80
2023-02-26T09:10:01.148Z,14.52
2023-02-26T09:12:28.239Z,12.80
2023-02-26T09:14:55.502Z,11.93
2023-02-26T09:17:22.575Z,13.02
2023-02-26T09:19:49.692Z,11.30
2023-02-26T09:22:17.449Z,12.07
2023-02-26T09:24:44.614Z,13.65
2023-02-26T09:27:11.785Z,11.45
2023-02-26T09:29:39.001Z,11.90
2023-02-26T09:32:08.486Z,13.65
2023-02-26T09:34:39.230Z,12.07
2023-02-26T09:37:07.324Z,12.05
2023-02-26T09:39:34.655Z,12.35
2023-02-26T09:42:19.871Z,12.27
2023-02-26T09:44:48.608Z,13.95
2023-02-26T09:47:18.721Z,12.93
2023-02-26T09:49:51.728Z,12.32
2023-02-26T09:52:30.771Z,12.80
2023-02-26T09:55:00.338Z,12.85
2023-02-26T09:57:35.497Z,11.23
2023-02-26T10:00:05.516Z,11.32
2023-02-26T10:02:41.386Z,11.82
2023-02-26T10:05:23.854Z,15.23
2023-02-26T10:07:56.811Z,10.15
2023-02-26T10:10:36.293Z,14.10
2023-02-26T10:13:03.601Z,13.63
2023-02-26T10:15:33.097Z,11.80
2023-02-26T10:18:00.204Z,11.25
2023-02-26T10:20:33.501Z,13.00
2023-02-26T10:23:00.678Z,13.75
2023-02-26T10:25:32.096Z,12.75
2023-02-26T10:28:02.541Z,16.08
2023-02-26T10:30:35.652Z,13.88
2023-02-26T10:33:16.664Z,14.15
2023-02-26T10:35:48.127Z,12.23
2023-02-26T10:38:18.989Z,13.13
2023-02-26T10:40:51.605Z,12.27
2023-02-26T10:43:24.787Z,12.65
2023-02-26T10:45:51.895Z,11.55
2023-02-26T10:48:36.658Z,12.43
2023-02-26T10:51:10.758Z,12.90
2023-02-26T10:53:40.451Z,13.07
2023-02-26T10:56:10.829Z,11.55
2023-02-26T10:58:38.342Z,11.90
2023-02-26T11:01:08.158Z,11.77
2023-02-26T11:03:37.438Z,13.02
2023-02-26T11:06:05.203Z,11.15
2023-02-26T11:08:37.672Z,12.90
2023-02-26T11:11:05.780Z,12.05
2023-02-26T11:13:34.276Z,10.77
2023-02-26T11:16:03.303Z,13.57
2023-02-26T11:18:32.294Z,11.70
2023-02-26T11:21:00.504Z,10.05
2023-02-26T11:23:29.197Z,11.90
2023-02-26T11:26:02.571Z,11.90
2023-02-26T11:28:32.447Z,11.32
2023-02-26T11:31:01.984Z,11.32
2023-02-26T11:33:34.291Z,10.95
2023-02-26T11:36:03.343Z,10.73
2023-02-26T11:38:31.666Z,12.45
2023-02-26T11:40:59.218Z,12.35
2023-02-26T11:43:28.493Z,13.88
2023-02-26T11:46:01.591Z,12.02
2023-02-26T11:48:32.235Z,12.88
2023-02-26T11:51:01.004Z,14.20
2023-02-26T11:53:43.477Z,13.00
2023-02-26T11:56:14.665Z,12.23
2023-02-26T11:58:43.879Z,13.95
2023-02-26T12:01:12.023Z,13.00
2023-02-26T12:03:41.009Z,10.38
2023-02-26T12:06:13.795Z,13.10
2023-02-26T12:08:41.068Z,11.18
2023-02-26T12:11:13.392Z,11.63
2023-02-26T12:13:46.951Z,12.00
2023-02-26T12:16:21.127Z,11.25
2023-02-26T12:19:08.633Z,13.45
2023-02-26T12:21:41.779Z,11.65
2023-02-26T12:24:20.953Z,11.13
2023-02-26T12:26:50.767Z,11.38
2023-02-26T12:29:36.633Z,12.98
2023-02-26T12:32:12.690Z,14.00
2023-02-26T12:34:58.822Z,12.48
2023-02-26T12:37:41.997Z,12.05
2023-02-26T12:40:30.916Z,12.65
2023-02-26T12:43:04.094Z,11.27
2023-02-26T12:45:34.353Z,11.02
2023-02-26T12:48:20.148Z,10.32
2023-02-26T12:50:56.347Z,10.07
2023-02-26T12:53:29.182Z,10.02
2023-02-26T12:56:22.947Z,10.57
2023-02-26T12:58:55.746Z,11.25
2023-02-26T13:01:34.073Z,9.80
2023-02-26T13:04:01.217Z,11.05
2023-02-26T13:06:54.893Z,12.70
2023-02-26T13:09:24.876Z,9.35
2023-02-26T13:12:00.240Z,11.35
2023-02-26T13:14:37.732Z,10.45
2023-02-26T13:17:14.537Z,11.18
2023-02-26T13:19:50.248Z,12.77
2023-02-26T13:22:26.670Z,11.48
2023-02-26T13:24:53.767Z,11.55
2023-02-26T13:27:23.546Z,12.25
2023-02-26T13:29:55.085Z,10.18
2023-02-26T13:32:24.518Z,12.52
2023-02-26T13:34:59.532Z,11.25
2023-02-26T13:37:55.761Z,11.98
2023-02-26T13:40:30.944Z,11.90
2023-02-26T13:43:03.812Z,10.80
2023-02-26T13:45:31.018Z,13.32
2023-02-26T13:48:21.692Z,14.98
2023-02-26T13:51:07.694Z,13.90
2023-02-26T13:53:36.936Z,10.57
2023-02-26T13:56:08.963Z,10.68
2023-02-26T13:58:36.241Z,11.18
2023-02-26T14:01:06.577Z,13.40
2023-02-26T14:03:54.041Z,10.13
2023-02-26T14:06:24.285Z,12.85
2023-02-26T14:08:53.033Z,10.20
2023-02-26T14:11:40.413Z,14.68
2023-02-26T14:14:16.853Z,10.25
2023-02-26T14:16:45.272Z,11.20
2023-02-26T14:19:21.543Z,11.93
2023-02-26T14:22:02.452Z,14.05
2023-02-26T14:24:36.732Z,13.98
2023-02-26T14:27:13.104Z,12.20
2023-02-26T14:29:44.263Z,13.82
2023-02-26T14:32:11.468Z,13.15
2023-02-26T14:34:53.084Z,12.32
2023-02-26T14:37:22.067Z,13.63
2023-02-26T14:39:53.354Z,16.75
2023-02-26T14:44:50.119Z,12.57
2023-02-26T14:47:17.674Z,14.27
2023-02-26T14:49:46.576Z,14.23
2023-02-26T14:52:32.325Z,11.23
2023-02-26T14:54:59.410Z,10.25
2023-02-26T14:57:37.252Z,12.25
2023-02-26T15:00:14.071Z,13.13
2023-02-26T15:03:03.558Z,13.38
2023-02-26T15:05:41.195Z,12.45
2023-02-26T15:08:22.371Z,13.32
2023-02-26T15:11:08.841Z,12.93
2023-02-26T15:13:56.315Z,10.90
2023-02-26T15:16:36.170Z,12.52
2023-02-26T15:19:22.238Z,12.05
2023-02-26T15:22:08.356Z,14.20
2023-02-26T15:24:35.562Z,13.57
2023-02-26T15:27:04.187Z,12.60
2023-02-26T15:29:32.974Z,15.15
2023-02-26T15:32:05.857Z,13.98
2023-02-26T15:34:33.996Z,15.45
2023-02-26T15:37:01.379Z,16.80
2023-02-26T15:39:28.636Z,15.68
2023-02-26T15:41:56.521Z,18.48
2023-02-26T15:44:26.409Z,23.08
2023-02-26T15:46:55.887Z,22.10
2023-02-26T15:49:29.230Z,19.67
2023-02-26T15:51:56.856Z,15.10
2023-02-26T15:54:25.833Z,14.35
2023-02-26T15:56:53.248Z,15.57
2023-02-26T15:59:23.387Z,16.65
2023-02-26T16:01:50.612Z,13.70
2023-02-26T16:04:19.588Z,13.80
2023-02-26T16:06:51.309Z,13.35
2023-02-26T16:09:19.715Z,16.13
2023-02-26T16:11:47.731Z,18.58
2023-02-26T16:14:18.733Z,22.48
2023-02-26T16:16:47.157Z,24.75
2023-02-26T16:19:15.796Z,24.33
2023-02-26T16:21:43.728Z,23.40
2023-02-26T16:24:15.158Z,19.77
2023-02-26T16:26:48.194Z,19.35
2023-02-26T16:29:19.053Z,20.48
2023-02-26T16:31:49.595Z,16.08
2023-02-26T16:34:32.305Z,14.68
2023-02-26T16:36:59.561Z,12.98
2023-02-26T16:39:27.756Z,14.25
2023-02-26T16:42:16.535Z,13.20
2023-02-26T16:44:49.393Z,13.65
2023-02-26T16:47:17.198Z,17.13
2023-02-26T16:49:47.989Z,15.63
2023-02-26T16:52:17.171Z,14.43
2023-02-26T16:54:44.971Z,15.23
2023-02-26T16:57:12.028Z,15.68
2023-02-26T16:59:39.779Z,15.95
2023-02-26T17:02:27.058Z,19.30
2023-02-26T17:04:58.598Z,18.65
2023-02-26T17:07:31.628Z,17.38
2023-02-26T17:10:00.388Z,18.67
2023-02-26T17:12:39.868Z,18.70
2023-02-26T17:15:12.971Z,19.27
2023-02-26T17:17:40.056Z,19.10
2023-02-26T17:20:07.366Z,16.42
2023-02-26T17:22:36.096Z,16.05
2023-02-26T17:25:03.239Z,17.05
2023-02-26T17:27:37.431Z,16.77
2023-02-26T17:30:06.186Z,15.88
2023-02-26T17:32:33.573Z,15.73
2023-02-26T17:35:01.863Z,18.15
2023-02-26T17:37:39.613Z,17.27
2023-02-26T17:40:17.433Z,18.38
2023-02-26T17:42:45.247Z,17.13
2023-02-26T17:45:14.398Z,19.20
2023-02-26T17:47:41.652Z,16.90
2023-02-26T17:50:19.379Z,18.77
2023-02-26T17:52:46.527Z,17.90
2023-02-26T17:55:13.603Z,18.38
2023-02-26T17:57:40.713Z,17.35
2023-02-26T18:00:08.940Z,17.38
2023-02-26T18:02:36.072Z,21.75
2023-02-26T18:05:03.182Z,19.30
2023-02-26T18:07:30.397Z,19.45
2023-02-26T18:09:57.491Z,23.00
2023-02-26T18:12:24.599Z,22.98
2023-02-26T18:14:52.026Z,23.08
2023-02-26T18:17:21.498Z,24.45
2023-02-26T18:19:49.486Z,20.38
2023-02-26T18:22:17.582Z,23.83
2023-02-26T18:24:44.688Z,24.73
2023-02-26T18:27:15.751Z,23.23
2023-02-26T18:29:44.048Z,24.08
2023-02-26T18:32:15.086Z,24.83
2023-02-26T18:34:42.735Z,24.70
2023-02-26T18:37:12.990Z,22.33
2023-02-26T18:39:40.153Z,25.77
2023-02-26T18:42:07.292Z,30.33
2023-02-26T18:44:34.444Z,25.17
2023-02-26T18:47:01.588Z,25.48
2023-02-26T18:49:28.775Z,29.20
2023-02-26T18:51:55.948Z,25.02
2023-02-26T18:54:23.039Z,24.20
2023-02-26T18:56:50.136Z,26.85
2023-02-26T18:59:17.460Z,25.30
2023-02-26T19:01:44.901Z,25.05
2023-02-26T19:04:12.011Z,23.52
2023-02-26T19:06:39.166Z,23.88
2023-02-26T19:09:06.457Z,23.75
2023-02-26T19:11:33.541Z,22.88
2023-02-26T19:14:01.299Z,24.05
2023-02-26T19:16:30.739Z,26.00
2023-02-26T19:18:59.855Z,24.00
2023-02-26T19:21:28.244Z,26.02
2023-02-26T19:23:55.555Z,28.00
2023-02-26T19:26:22.846Z,25.15
2023-02-26T19:28:49.990Z,26.40
2023-02-26T19:31:17.218Z,28.15
2023-02-26T19:33:44.351Z,29.38
2023-02-26T19:36:11.726Z,26.95
2023-02-26T19:38:38.788Z,30.23
2023-02-26T19:41:05.897Z,28.08
2023-02-26T19:43:33.078Z,30.08
2023-02-26T19:46:00.234Z,27.05
2023-02-26T19:48:27.336Z,25.35
2023-02-26T19:50:55.621Z,25.35
2023-02-26T19:53:22.807Z,29.02
2023-02-26T19:55:50.734Z,25.23
2023-02-26T19:58:19.678Z,26.98
2023-02-26T20:00:47.049Z,23.35
2023-02-26T20:03:14.126Z,26.05
2023-02-26T20:05:41.304Z,28.83
2023-02-26T20:08:08.472Z,23.20
2023-02-26T20:10:35.635Z,25.60
2023-02-26T20:13:02.789Z,23.88
2023-02-26T20:15:29.920Z,23.63
2023-02-26T20:17:57.002Z,23.02
2023-02-26T20:20:24.196Z,23.10
2023-02-26T20:22:51.299Z,20.33
2023-02-26T20:25:19.843Z,22.85
2023-02-26T20:27:47.024Z,18.58
2023-02-26T20:30:14.533Z,22.15
2023-02-26T20:32:41.779Z,21.77
2023-02-26T20:35:09.649Z,24.73
2023-02-26T20:37:36.849Z,20.70
2023-02-26T20:40:05.329Z,21.23
2023-02-26T20:42:33.686Z,23.25
2023-02-26T20:45:01.223Z,21.05
2023-02-26T20:47:28.356Z,18.80
2023-02-26T20:49:55.601Z,21.17
2023-02-26T20:52:24.157Z,22.65
2023-02-26T20:54:51.264Z,23.60
2023-02-26T20:57:18.572Z,22.20
2023-02-26T20:59:45.690Z,20.15
2023-02-26T21:02:15.417Z,19.98
2023-02-26T21:04:42.709Z,18.42
2023-02-26T21:07:12.873Z,14.60
2023-02-26T21:09:41.019Z,15.73
2023-02-26T21:12:08.521Z,15.48
2023-02-26T21:14:36.313Z,14.68
2023-02-26T21:17:04.431Z,15.73
2023-02-26T21:19:31.927Z,17.27
2023-02-26T21:22:00.862Z,14.02
2023-02-26T21:24:28.732Z,14.85
2023-02-26T21:26:56.109Z,15.25
2023-02-26T21:29:23.619Z,14.13
2023-02-26T21:31:53.419Z,12.68
2023-02-26T21:34:33.208Z,13.23
2023-02-26T21:37:01.601Z,11.55
2023-02-26T21:39:30.655Z,11.80
2023-02-26T21:42:00.120Z,11.38
2023-02-26T21:44:27.584Z,11.93
2023-02-26T21:46:54.787Z,12.55
2023-02-26T21:49:21.953Z,12.13
2023-02-26T21:51:49.040Z,13.52
2023-02-26T21:54:16.222Z,12.80
2023-02-26T21:56:43.411Z,10.80
2023-02-26T21:59:10.521Z,11.50
2023-02-26T22:01:37.778Z,9.75
2023-02-26T22:04:05.177Z,12.73
2023-02-26T22:06:32.349Z,11.88
2023-02-26T22:08:59.503Z,12.60
2023-02-26T22:11:26.848Z,9.63
2023-02-26T22:13:54.155Z,10.75
2023-02-26T22:16:21.420Z,11.93
2023-02-26T22:18:48.533Z,9.05
2023-02-26T22:21:15.690Z,10.98
2023-02-26T22:23:42.836Z,12.82
2023-02-26T22:26:10.236Z,10.07
2023-02-26T22:28:37.327Z,11.32
2023-02-26T22:31:04.585Z,9.40
2023-02-26T22:33:31.724Z,10.23
2023-02-26T22:35:59.956Z,9.43
2023-02-26T22:38:27.425Z,9.10
2023-02-26T22:40:54.660Z,10.32
2023-02-26T22:43:21.901Z,10.68
2023-02-26T22:45:50.401Z,13.40
2023-02-26T22:48:17.646Z,11.73
2023-02-26T22:50:44.987Z,11.50
2023-02-26T22:53:12.161Z,10.27
2023-02-26T22:55:39.295Z,11.05
2023-02-26T22:58:06.632Z,10.57
2023-02-26T23:00:33.956Z,12.82
2023-02-26T23:03:01.078Z,10.90
2023-02-26T23:05:28.507Z,11.57
2023-02-26T23:07:55.706Z,12.52
2023-02-26T23:10:23.009Z,10.73
2023-02-26T23:12:50.186Z,11.50
2023-02-26T23:15:17.498Z,13.80
2023-02-26T23:17:44.817Z,11.70
2023-02-26T23:20:13.986Z,11.82
2023-02-26T23:22:41.672Z,13.00
2023-02-26T23:25:08.957Z,12.98
2023-02-26T23:27:36.527Z,13.25
2023-02-26T23:30:04.374Z,13.48
2023-02-26T23:32:31.460Z,11.63
2023-02-26T23:34:58.602Z,11.57
2023-02-26T23:37:25.767Z,12.02
2023-02-26T23:39:53.014Z,10.98
2023-02-26T23:42:20.198Z,11.35
2023-02-26T23:44:47.383Z,12.73
2023-02-26T23:47:14.510Z,12.02
2023-02-26T23:49:41.641Z,10.77
2023-02-26T23:52:08.792Z,10.25
2023-02-26T23:54:35.952Z,9.80
2023-02-26T23:57:03.055Z,9.80
2023-02-26T23:59:30.229Z,6.82
